Time;durP1;ratioP1;P1;durP2;ratioP2;P2;SDS_P1;SDS_P2;PMS_P1;PMS_P2;Temp;Humidity;BMP_temperature;BMP_pressure;BME280_temperature;BME280_humidity;BME280_pressure;Samples;Min_cycle;Max_cycle;Signal;HPM_P1;HPM_P2
2023/04/05 00:02:09;;;;;;;39.00;21.35;;;-0.10;51.10;;;;;;4703831;29;115282;-82
2023/04/05 00:04:37;;;;;;;38.67;21.38;;;-0.10;51.30;;;;;;4719024;29;114664;-82
2023/04/05 00:07:07;;;;;;;39.40;20.27;;;-0.10;51.60;;;;;;4704988;29;114901;-82
2023/04/05 00:09:35;;;;;;;40.38;21.88;;;-0.10;51.40;;;;;;4690485;29;115458;-82
2023/04/05 00:12:02;;;;;;;39.38;21.05;;;-0.20;51.40;;;;;;4704260;29;115348;-83
2023/04/05 00:14:30;;;;;;;38.10;19.88;;;-0.20;51.60;;;;;;4719918;29;115710;-83
2023/04/05 00:16:57;;;;;;;38.33;20.15;;;-0.20;51.80;;;;;;4704356;29;114717;-82
2023/04/05 00:19:25;;;;;;;40.03;21.60;;;-0.20;51.50;;;;;;4690526;29;114776;-82
2023/04/05 00:21:53;;;;;;;40.88;21.52;;;-0.20;51.70;;;;;;4719703;29;115241;-84
2023/04/05 00:24:20;;;;;;;40.15;21.52;;;-0.30;51.80;;;;;;4719290;29;114907;-83
2023/04/05 00:26:48;;;;;;;38.97;21.80;;;-0.20;52.00;;;;;;4704158;29;114784;-83
2023/04/05 00:29:15;;;;;;;44.10;23.05;;;-0.30;51.90;;;;;;4704823;29;114617;-83
2023/04/05 00:31:43;;;;;;;43.55;23.08;;;-0.30;51.90;;;;;;4703523;29;116535;-83
2023/04/05 00:34:11;;;;;;;42.97;23.67;;;-0.30;51.90;;;;;;4704164;29;116558;-83
2023/04/05 00:36:39;;;;;;;41.10;22.85;;;-0.30;52.20;;;;;;4676167;29;114725;-85
2023/04/05 00:39:07;;;;;;;47.78;25.08;;;-0.30;52.40;;;;;;4704706;29;114648;-82
2023/04/05 00:41:35;;;;;;;48.80;26.67;;;-0.30;52.30;;;;;;4674398;29;116782;-83
2023/04/05 00:44:04;;;;;;;56.55;30.05;;;-0.30;52.30;;;;;;4718687;29;116658;-82
2023/04/05 00:46:36;;;;;;;55.60;30.83;;;-0.30;52.30;;;;;;4704998;29;115706;-82
2023/04/05 00:49:04;;;;;;;52.50;29.83;;;-0.30;52.50;;;;;;4675878;29;114589;-82
2023/04/05 00:51:32;;;;;;;52.72;28.80;;;-0.40;52.30;;;;;;4703304;29;115380;-82
2023/04/05 00:54:00;;;;;;;63.30;31.45;;;-0.50;52.30;;;;;;4674675;29;114746;-84
2023/04/05 00:56:28;;;;;;;59.13;30.90;;;-0.40;52.40;;;;;;4669653;30;114533;-82
2023/04/05 00:58:59;;;;;;;54.85;31.50;;;-0.50;52.30;;;;;;4691780;29;114834;-82
2023/04/05 01:01:27;;;;;;;60.80;32.58;;;-0.60;52.30;;;;;;4722122;29;116696;-81
2023/04/05 01:04:01;;;;;;;54.75;32.10;;;-0.60;52.50;;;;;;4677731;29;114684;-82
2023/04/05 01:07:08;;;;;;;60.78;33.83;;;-0.60;52.80;;;;;;4679642;29;115018;-82
2023/04/05 01:09:56;;;;;;;61.58;30.67;;;-0.70;52.70;;;;;;4679723;29;114924;-83
2023/04/05 01:12:31;;;;;;;62.70;35.13;;;-0.70;52.90;;;;;;4694130;29;116002;-83
2023/04/05 01:15:04;;;;;;;61.65;31.60;;;-0.80;52.90;;;;;;4701990;29;115087;-82
2023/04/05 01:17:38;;;;;;;61.08;34.50;;;-0.80;52.90;;;;;;4721060;29;115668;-83
2023/04/05 01:20:09;;;;;;;56.85;31.10;;;-0.80;52.80;;;;;;4705962;29;115014;-82
2023/04/05 01:23:29;;;;;;;53.78;30.60;;;-0.90;53.10;;;;;;4689586;29;117934;-83
2023/04/05 01:26:40;;;;;;;56.30;30.70;;;-0.80;53.00;;;;;;4703814;29;115319;-83
2023/04/05 01:29:49;;;;;;;61.35;30.90;;;-0.90;53.20;;;;;;4690385;29;115051;-83
2023/04/05 01:33:00;;;;;;;48.83;27.02;;;-0.90;53.30;;;;;;4689397;29;114832;-81
2023/04/05 01:35:33;;;;;;;54.97;27.42;;;-0.90;53.80;;;;;;4703748;29;115174;-82
2023/04/05 01:38:03;;;;;;;53.92;26.48;;;-0.90;53.60;;;;;;4703442;29;115633;-84
2023/04/05 01:40:31;;;;;;;61.05;28.48;;;-1.00;53.60;;;;;;4689696;29;114760;-82
2023/04/05 01:43:04;;;;;;;51.78;28.08;;;-0.90;53.80;;;;;;4689505;29;114849;-83
2023/04/05 01:45:43;;;;;;;48.90;26.63;;;-0.90;53.80;;;;;;4702164;29;115130;-83
2023/04/05 01:48:11;;;;;;;50.85;26.58;;;-0.90;54.20;;;;;;4704437;29;114767;-83
2023/04/05 01:50:40;;;;;;;53.15;28.80;;;-0.90;54.00;;;;;;4689142;29;114639;-83
2023/04/05 01:53:08;;;;;;;52.55;27.35;;;-0.90;53.90;;;;;;4704744;29;116354;-83
2023/04/05 01:55:35;;;;;;;56.45;29.88;;;-0.90;53.80;;;;;;4688109;29;117070;-83
2023/04/05 01:58:03;;;;;;;54.00;29.00;;;-0.90;53.70;;;;;;4704125;29;114699;-82
2023/04/05 02:00:31;;;;;;;51.97;27.58;;;-0.90;53.80;;;;;;4704852;29;114896;-83
2023/04/05 02:02:59;;;;;;;50.67;25.83;;;-0.90;54.30;;;;;;4689236;29;114599;-83
2023/04/05 02:05:26;;;;;;;54.10;28.10;;;-0.90;54.50;;;;;;4658450;29;121099;-83
2023/04/05 02:07:53;;;;;;;50.80;26.98;;;-0.90;54.60;;;;;;4704350;29;114747;-83
2023/04/05 02:10:21;;;;;;;49.97;28.17;;;-0.80;54.50;;;;;;4703458;29;118178;-83
2023/04/05 02:12:48;;;;;;;46.72;26.63;;;-0.80;54.60;;;;;;4688883;29;114741;-84
2023/04/05 02:15:16;;;;;;;56.63;27.85;;;-0.80;54.80;;;;;;4686922;29;118052;-84
2023/04/05 02:17:44;;;;;;;53.60;26.50;;;-0.80;54.70;;;;;;4702846;29;114880;-83
2023/04/05 02:20:13;;;;;;;56.38;28.17;;;-0.80;54.70;;;;;;4703736;29;114921;-81
2023/04/05 02:22:44;;;;;;;52.67;27.95;;;-0.80;54.90;;;;;;4674487;29;114620;-81
2023/04/05 02:25:12;;;;;;;56.28;29.52;;;-0.80;55.00;;;;;;4703715;29;115361;-82
2023/04/05 02:27:40;;;;;;;53.90;28.33;;;-0.80;55.00;;;;;;4688415;29;115107;-82
2023/04/05 02:30:08;;;;;;;48.67;27.48;;;-0.80;55.10;;;;;;4673660;29;114581;-83
2023/04/05 02:32:35;;;;;;;56.75;29.55;;;-0.80;55.00;;;;;;4704232;29;114584;-82
2023/04/05 02:35:03;;;;;;;47.40;28.50;;;-0.80;54.90;;;;;;4672921;29;118717;-82
2023/04/05 02:37:38;;;;;;;50.60;27.55;;;-0.80;55.00;;;;;;4702885;29;114643;-83
2023/04/05 02:40:11;;;;;;;50.00;28.02;;;-0.80;55.10;;;;;;4690267;29;114890;-82
2023/04/05 02:42:38;;;;;;;48.33;27.98;;;-0.80;54.90;;;;;;4689306;29;115008;-82
2023/04/05 02:45:07;;;;;;;47.50;26.42;;;-0.80;54.50;;;;;;4687774;29;117987;-82
2023/04/05 02:47:35;;;;;;;50.28;25.38;;;-0.90;54.50;;;;;;4702414;29;116628;-81
2023/04/05 02:50:05;;;;;;;46.13;25.63;;;-0.90;54.70;;;;;;4688977;29;114522;-82
2023/04/05 02:52:39;;;;;;;51.38;26.23;;;-0.90;54.70;;;;;;4703530;29;115229;-82
2023/04/05 02:55:06;;;;;;;49.42;25.88;;;-0.90;54.70;;;;;;4688117;29;115280;-81
2023/04/05 02:57:36;;;;;;;54.47;27.70;;;-0.80;54.70;;;;;;4705736;29;114770;-82
2023/04/05 03:00:16;;;;;;;52.05;27.10;;;-0.80;54.80;;;;;;4716443;29;115017;-81
2023/04/05 03:02:43;;;;;;;57.15;27.23;;;-0.80;54.90;;;;;;4689913;29;114602;-82
2023/04/05 03:05:12;;;;;;;46.25;25.48;;;-0.70;55.00;;;;;;4703197;29;115221;-81
2023/04/05 03:07:43;;;;;;;47.35;26.42;;;-0.70;55.00;;;;;;4687031;29;117786;-81
2023/04/05 03:10:12;;;;;;;48.90;25.55;;;-0.70;55.00;;;;;;4702199;29;115630;-81
2023/04/05 03:12:40;;;;;;;47.88;26.75;;;-0.70;55.10;;;;;;4704018;29;114989;-82
2023/04/05 03:15:10;;;;;;;51.95;27.50;;;-0.60;55.10;;;;;;4701822;29;115307;-83
2023/04/05 03:17:43;;;;;;;50.17;26.38;;;-0.60;55.20;;;;;;4710590;29;114830;-83
2023/04/05 03:20:12;;;;;;;49.33;26.50;;;-0.60;55.20;;;;;;4719993;29;114543;-83
2023/04/05 03:22:40;;;;;;;50.03;27.45;;;-0.60;55.30;;;;;;4705742;29;114567;-84
2023/04/05 03:25:10;;;;;;;52.67;25.33;;;-0.60;55.20;;;;;;4719081;29;115358;-85
2023/04/05 03:27:44;;;;;;;49.72;26.67;;;-0.60;55.10;;;;;;4677422;29;115102;-83
2023/04/05 03:30:15;;;;;;;51.42;27.35;;;-0.60;55.10;;;;;;4706114;29;114621;-83
2023/04/05 03:32:50;;;;;;;55.75;30.08;;;-0.60;55.10;;;;;;4720508;29;119159;-83
2023/04/05 03:35:37;;;;;;;56.83;31.90;;;-0.60;55.30;;;;;;4691889;29;117752;-83
2023/04/05 03:38:07;;;;;;;63.35;32.25;;;-0.60;55.40;;;;;;4690857;29;114973;-82
2023/04/05 03:40:38;;;;;;;53.35;30.20;;;-0.50;55.40;;;;;;4691516;29;116148;-82
2023/04/05 03:43:09;;;;;;;54.90;30.85;;;-0.50;55.40;;;;;;4691821;29;114687;-82
2023/04/05 03:45:37;;;;;;;53.50;29.88;;;-0.40;55.30;;;;;;4704238;29;119540;-82
2023/04/05 03:48:04;;;;;;;54.58;28.85;;;-0.40;55.40;;;;;;4719232;29;115922;-82
2023/04/05 03:50:32;;;;;;;55.10;29.08;;;-0.40;55.50;;;;;;4704672;29;114983;-82
2023/04/05 03:53:00;;;;;;;52.83;28.77;;;-0.40;55.50;;;;;;4676087;29;114720;-82
2023/04/05 03:55:28;;;;;;;55.55;30.35;;;-0.40;55.20;;;;;;4719323;29;115950;-83
2023/04/05 03:58:00;;;;;;;57.00;28.23;;;-0.30;55.10;;;;;;4701294;29;114798;-83
2023/04/05 04:00:33;;;;;;;54.72;28.75;;;-0.30;54.90;;;;;;4719069;29;116803;-83
2023/04/05 04:03:15;;;;;;;47.58;26.85;;;-0.40;54.90;;;;;;4719724;29;114709;-82
2023/04/05 04:05:45;;;;;;;49.60;28.23;;;-0.50;54.90;;;;;;4718802;29;115578;-83
2023/04/05 04:08:13;;;;;;;54.92;30.20;;;-0.40;54.70;;;;;;4720543;29;115027;-85
2023/04/05 04:10:40;;;;;;;52.35;28.02;;;-0.40;54.70;;;;;;4719750;29;114792;-84
2023/04/05 04:13:18;;;;;;;50.92;27.05;;;-0.40;54.50;;;;;;4705931;29;114678;-85
2023/04/05 04:15:51;;;;;;;41.25;23.17;;;-0.50;54.20;;;;;;4704298;29;116279;-85
2023/04/05 04:18:37;;;;;;;51.63;27.52;;;-0.50;54.30;;;;;;4700427;29;114806;-83
2023/04/05 04:21:23;;;;;;;52.72;28.45;;;-0.50;54.50;;;;;;4702111;29;114796;-83
2023/04/05 04:24:15;;;;;;;47.38;27.08;;;-0.40;54.30;;;;;;4689445;29;114732;-83
2023/04/05 04:26:53;;;;;;;50.65;26.50;;;-0.40;54.30;;;;;;4701024;29;115934;-83
2023/04/05 04:29:32;;;;;;;46.33;26.90;;;-0.60;53.70;;;;;;4702204;29;116859;-83
2023/04/05 04:32:25;;;;;;;51.78;25.70;;;-0.60;54.10;;;;;;4702386;29;117315;-83
2023/04/05 04:35:19;;;;;;;49.08;26.02;;;-0.60;54.40;;;;;;4691107;29;114962;-84
2023/04/05 04:38:04;;;;;;;47.70;24.23;;;-0.60;54.60;;;;;;4698443;29;117317;-84
2023/04/05 04:40:49;;;;;;;47.25;24.73;;;-0.50;54.60;;;;;;4687339;29;115159;-82
2023/04/05 04:43:46;;;;;;;44.90;22.52;;;-0.40;54.50;;;;;;4707058;29;114803;-83
2023/04/05 04:46:29;;;;;;;47.60;25.67;;;-0.40;54.60;;;;;;4687401;29;114633;-83
2023/04/05 04:49:23;;;;;;;67.80;32.88;;;-0.40;54.70;;;;;;4682903;29;115384;-82
2023/04/05 04:51:52;;;;;;;61.20;33.13;;;-0.40;54.40;;;;;;4700883;29;114857;-83
2023/04/05 04:54:22;;;;;;;56.53;31.60;;;-0.30;54.30;;;;;;4701909;29;114625;-82
2023/04/05 04:56:50;;;;;;;58.10;30.20;;;-0.30;54.30;;;;;;4687299;29;115018;-83
2023/04/05 04:59:17;;;;;;;58.72;28.25;;;-0.30;54.40;;;;;;4700175;29;115268;-82
2023/04/05 05:01:45;;;;;;;71.80;37.33;;;-0.30;54.60;;;;;;4702094;29;114876;-82
2023/04/05 05:04:12;;;;;;;77.78;37.53;;;-0.20;54.50;;;;;;4684829;29;114960;-84
2023/04/05 05:06:41;;;;;;;55.05;28.98;;;-0.20;54.20;;;;;;4701602;29;114633;-82
2023/04/05 05:09:08;;;;;;;64.22;31.35;;;-0.20;54.00;;;;;;4700939;29;119592;-82
2023/04/05 05:11:46;;;;;;;59.13;30.42;;;-0.20;54.10;;;;;;4687454;29;114653;-82
2023/04/05 05:14:14;;;;;;;59.22;30.58;;;-0.10;54.10;;;;;;4693840;29;114650;-84
2023/04/05 05:16:41;;;;;;;62.88;29.40;;;0.10;53.90;;;;;;4691783;29;114729;-83
2023/04/05 05:19:09;;;;;;;56.42;28.75;;;0.10;53.70;;;;;;4679752;29;116666;-83
2023/04/05 05:21:49;;;;;;;52.67;29.73;;;0.10;53.80;;;;;;4711547;29;115239;-83
2023/04/05 05:24:17;;;;;;;53.70;29.75;;;0.10;53.90;;;;;;4710441;29;114883;-83
2023/04/05 05:26:44;;;;;;;57.35;30.80;;;0.10;54.10;;;;;;4713962;29;115033;-83
2023/04/05 05:29:11;;;;;;;54.08;29.95;;;0.20;54.20;;;;;;4693930;29;117451;-83
2023/04/05 05:31:44;;;;;;;58.90;33.35;;;0.20;53.90;;;;;;4706105;29;116388;-83
2023/04/05 05:34:12;;;;;;;59.70;32.13;;;0.40;54.30;;;;;;4693242;29;118697;-83
2023/04/05 05:36:45;;;;;;;60.10;32.58;;;0.70;54.10;;;;;;4667750;29;114635;-83
2023/04/05 05:39:13;;;;;;;57.55;32.75;;;1.00;53.80;;;;;;4709719;29;116734;-82
2023/04/05 05:41:40;;;;;;;59.83;33.90;;;1.10;53.50;;;;;;4705993;29;115027;-82
2023/04/05 05:44:07;;;;;;;56.15;32.47;;;1.40;53.40;;;;;;4712404;29;114555;-83
2023/04/05 05:46:35;;;;;;;57.47;32.63;;;1.70;52.90;;;;;;4713726;29;114612;-82
2023/04/05 05:49:05;;;;;;;58.63;34.22;;;1.90;52.40;;;;;;4683218;29;115367;-83
2023/04/05 05:51:42;;;;;;;57.72;32.72;;;2.20;51.70;;;;;;4669334;29;115211;-81
2023/04/05 05:54:09;;;;;;;56.00;32.13;;;2.40;51.50;;;;;;4694315;29;114503;-83
2023/04/05 05:56:37;;;;;;;57.83;33.42;;;2.70;50.90;;;;;;4674244;29;115248;-82
2023/04/05 05:59:06;;;;;;;52.80;31.17;;;2.90;50.40;;;;;;4659079;29;115409;-81
2023/04/05 06:01:41;;;;;;;48.95;29.98;;;2.90;49.90;;;;;;4678726;29;116781;-81
2023/04/05 06:04:09;;;;;;;47.60;27.10;;;2.90;49.50;;;;;;4691207;29;114858;-82
2023/04/05 06:06:36;;;;;;;50.22;28.75;;;2.90;49.30;;;;;;4688818;29;114622;-82
2023/04/05 06:09:04;;;;;;;46.08;27.35;;;2.90;49.00;;;;;;4703265;29;115971;-82
2023/04/05 06:11:31;;;;;;;52.63;29.77;;;3.00;48.70;;;;;;4690841;29;114755;-83
2023/04/05 06:14:00;;;;;;;47.20;27.88;;;3.10;48.60;;;;;;4714588;29;114555;-82
2023/04/05 06:16:46;;;;;;;50.70;29.02;;;3.10;48.10;;;;;;4692159;29;114804;-82
2023/04/05 06:19:13;;;;;;;47.65;27.17;;;3.10;47.90;;;;;;4705465;29;115192;-83
2023/04/05 06:21:41;;;;;;;50.25;28.63;;;3.00;47.90;;;;;;4692714;29;114956;-83
2023/04/05 06:24:08;;;;;;;49.83;27.75;;;3.10;47.80;;;;;;4681679;29;114411;-83
2023/04/05 06:26:36;;;;;;;52.00;29.63;;;3.00;47.90;;;;;;4691809;29;118628;-83
2023/04/05 06:29:05;;;;;;;51.20;29.23;;;3.00;47.80;;;;;;4691812;29;115588;-83
2023/04/05 06:31:33;;;;;;;51.92;31.35;;;2.90;47.70;;;;;;4717913;29;114917;-83
2023/04/05 06:34:01;;;;;;;40.85;26.33;;;3.00;47.70;;;;;;4658600;29;114570;-83
2023/04/05 06:36:32;;;;;;;45.88;26.45;;;2.90;47.80;;;;;;4676881;29;114824;-82
2023/04/05 06:39:00;;;;;;;48.92;30.15;;;2.90;47.30;;;;;;4686735;29;115669;-82
2023/04/05 06:41:28;;;;;;;49.00;30.23;;;2.80;47.70;;;;;;4684437;29;117968;-83
2023/04/05 06:43:55;;;;;;;45.03;26.08;;;2.80;48.10;;;;;;4691868;29;114558;-83
2023/04/05 06:46:23;;;;;;;40.08;25.00;;;2.80;48.50;;;;;;4673843;29;114795;-83
2023/04/05 06:48:51;;;;;;;34.10;21.33;;;2.90;47.90;;;;;;4691108;29;115507;-83
2023/04/05 06:51:19;;;;;;;38.40;20.98;;;3.10;47.50;;;;;;4720366;29;115493;-84
2023/04/05 06:53:46;;;;;;;26.02;16.23;;;3.10;47.30;;;;;;4706137;29;114766;-83
2023/04/05 06:56:15;;;;;;;34.13;20.13;;;3.20;46.80;;;;;;4687835;29;116198;-84
2023/04/05 06:58:46;;;;;;;36.83;20.80;;;3.30;46.40;;;;;;4699927;29;116758;-83
2023/04/05 07:01:16;;;;;;;34.38;20.90;;;3.60;46.30;;;;;;4705734;29;115736;-83
2023/04/05 07:03:43;;;;;;;35.67;19.63;;;3.60;45.90;;;;;;4694059;29;114711;-84
2023/04/05 07:06:14;;;;;;;30.58;16.42;;;3.60;45.50;;;;;;4643806;29;114805;-84
2023/04/05 07:08:43;;;;;;;27.55;16.00;;;3.60;45.40;;;;;;4691116;29;115957;-84
2023/04/05 07:11:14;;;;;;;28.92;16.80;;;3.60;45.40;;;;;;4691009;29;114810;-83
2023/04/05 07:13:44;;;;;;;20.25;10.40;;;3.70;45.00;;;;;;4713250;29;115273;-84
2023/04/05 07:16:14;;;;;;;18.17;11.80;;;3.80;45.00;;;;;;4675451;29;114976;-85
2023/04/05 07:18:42;;;;;;;27.77;14.43;;;4.10;44.20;;;;;;4684465;29;118330;-83
2023/04/05 07:21:09;;;;;;;25.25;14.15;;;4.20;43.20;;;;;;4694447;29;114978;-82
2023/04/05 07:23:37;;;;;;;22.67;12.95;;;4.40;42.70;;;;;;4685013;29;115057;-83
2023/04/05 07:26:06;;;;;;;22.02;12.90;;;4.50;42.20;;;;;;4671664;29;114977;-83
2023/04/05 07:28:37;;;;;;;22.77;13.88;;;4.60;42.00;;;;;;4721193;29;115363;-84
2023/04/05 07:31:08;;;;;;;22.33;14.15;;;4.60;41.80;;;;;;4691879;29;114818;-84
2023/04/05 07:33:35;;;;;;;19.77;12.77;;;4.70;41.60;;;;;;4691619;29;114968;-84
2023/04/05 07:36:06;;;;;;;25.15;14.27;;;4.70;41.30;;;;;;4691283;29;114988;-84
2023/04/05 07:38:33;;;;;;;22.40;15.63;;;4.80;41.40;;;;;;4694682;29;115155;-85
2023/04/05 07:41:01;;;;;;;20.98;13.10;;;4.90;41.40;;;;;;4715519;29;115227;-84
2023/04/05 07:43:30;;;;;;;20.83;12.70;;;5.10;41.10;;;;;;4719992;29;115026;-84
2023/04/05 07:46:03;;;;;;;20.17;13.50;;;5.10;41.10;;;;;;4684428;29;114553;-84
2023/04/05 07:52:00;;;;;;;19.80;11.73;;;5.30;40.50;;;;;;4701246;29;114916;-84
2023/04/05 07:54:32;;;;;;;18.55;11.15;;;5.30;40.70;;;;;;4721735;29;114746;-84
2023/04/05 07:57:01;;;;;;;20.38;11.13;;;5.40;40.10;;;;;;4704575;29;114836;-84
2023/04/05 07:59:28;;;;;;;17.50;10.95;;;5.50;40.70;;;;;;4720886;29;115369;-85
2023/04/05 08:01:59;;;;;;;19.10;11.73;;;5.60;40.20;;;;;;4713109;29;114802;-84
2023/04/05 08:04:41;;;;;;;19.00;11.50;;;5.60;39.90;;;;;;4692040;29;114656;-84
2023/04/05 08:07:09;;;;;;;20.05;10.90;;;5.60;39.80;;;;;;4690666;29;114569;-84
2023/04/05 08:09:37;;;;;;;19.92;11.75;;;5.70;39.60;;;;;;4715168;29;114918;-83
2023/04/05 08:12:05;;;;;;;20.42;11.45;;;5.70;39.60;;;;;;4691884;29;116366;-84
2023/04/05 08:14:32;;;;;;;21.42;12.10;;;5.60;39.50;;;;;;4692208;29;114662;-84
2023/04/05 08:16:59;;;;;;;16.52;10.82;;;5.60;39.80;;;;;;4717185;29;115341;-83
2023/04/05 08:19:27;;;;;;;17.67;11.30;;;5.70;39.80;;;;;;4690325;29;115474;-83
2023/04/05 08:21:55;;;;;;;16.63;11.48;;;5.70;39.70;;;;;;4721328;29;114656;-83
2023/04/05 08:24:26;;;;;;;21.15;11.27;;;5.80;39.60;;;;;;4671736;29;114786;-83
2023/04/05 08:26:53;;;;;;;20.35;11.18;;;5.70;39.80;;;;;;4721509;29;118429;-83
2023/04/05 08:29:21;;;;;;;18.70;10.57;;;5.70;39.80;;;;;;4718851;29;115469;-83
2023/04/05 08:31:48;;;;;;;19.38;11.48;;;5.70;39.90;;;;;;4704823;29;114861;-85
2023/04/05 08:34:16;;;;;;;18.90;11.43;;;5.80;40.00;;;;;;4705565;29;114923;-83
2023/04/05 08:36:43;;;;;;;18.38;10.88;;;6.00;40.40;;;;;;4716864;29;114753;-84
2023/04/05 08:39:15;;;;;;;18.58;11.20;;;6.10;39.40;;;;;;4713346;29;115158;-83
2023/04/05 08:41:49;;;;;;;17.63;10.27;;;6.10;39.80;;;;;;4712567;29;114696;-84
2023/04/05 08:44:16;;;;;;;19.10;11.55;;;6.00;39.30;;;;;;4686393;29;114829;-84
2023/04/05 08:46:44;;;;;;;16.95;10.90;;;5.80;40.00;;;;;;4669866;29;116636;-85
2023/04/05 08:49:14;;;;;;;15.20;9.70;;;5.80;38.90;;;;;;4689870;29;114518;-83
2023/04/05 08:51:42;;;;;;;16.85;10.88;;;5.60;39.20;;;;;;4668281;29;114699;-84
2023/04/05 08:54:13;;;;;;;17.10;10.48;;;5.50;39.60;;;;;;4691092;29;114456;-84
2023/04/05 08:56:45;;;;;;;13.38;7.70;;;5.50;40.00;;;;;;4676610;29;114991;-85
2023/04/05 08:59:12;;;;;;;14.15;8.63;;;5.60;39.70;;;;;;4690377;29;117203;-84
2023/04/05 09:01:43;;;;;;;11.95;7.55;;;5.70;39.60;;;;;;4683480;29;114884;-85
2023/04/05 09:04:19;;;;;;;12.83;7.90;;;5.60;38.60;;;;;;4662021;29;115710;-86
2023/04/05 09:06:49;;;;;;;13.55;8.23;;;5.20;38.60;;;;;;4692141;29;115389;-84
2023/04/05 09:09:17;;;;;;;18.23;9.77;;;4.90;39.60;;;;;;4662894;30;115424;-84
2023/04/05 09:11:44;;;;;;;13.32;6.80;;;4.80;39.60;;;;;;4670095;30;115656;-85
2023/04/05 09:14:11;;;;;;;15.02;6.60;;;4.60;39.00;;;;;;4683105;29;114732;-84
2023/04/05 09:16:40;;;;;;;12.55;5.88;;;4.70;38.90;;;;;;4698350;29;115057;-84
2023/04/05 09:19:07;;;;;;;9.82;5.55;;;4.80;38.70;;;;;;4691743;29;115340;-84
2023/04/05 09:22:08;;;;;;;14.20;7.63;;;5.00;38.60;;;;;;4678668;29;114927;-84
2023/04/05 09:24:43;;;;;;;10.65;6.15;;;5.10;38.50;;;;;;4664306;29;114589;-84
2023/04/05 09:27:16;;;;;;;10.40;5.75;;;4.90;38.00;;;;;;4723005;29;114646;-84
2023/04/05 09:29:49;;;;;;;11.45;6.28;;;5.00;37.90;;;;;;4707862;29;115204;-85
2023/04/05 09:32:18;;;;;;;12.07;7.07;;;4.90;37.80;;;;;;4668206;29;118132;-84
2023/04/05 09:34:46;;;;;;;11.93;6.22;;;5.00;38.10;;;;;;4701869;29;114631;-84
2023/04/05 09:37:25;;;;;;;13.38;7.43;;;5.10;38.20;;;;;;4697043;29;114641;-84
2023/04/05 09:40:03;;;;;;;12.50;7.90;;;5.20;37.60;;;;;;4692566;29;118096;-84
2023/04/05 09:42:42;;;;;;;17.38;8.30;;;5.00;37.70;;;;;;4693243;29;114910;-84
2023/04/05 09:45:14;;;;;;;14.50;7.32;;;4.90;37.70;;;;;;4693870;29;114744;-84
2023/04/05 09:47:58;;;;;;;12.60;6.78;;;4.70;37.30;;;;;;4694343;29;115259;-84
2023/04/05 09:50:26;;;;;;;11.95;6.30;;;4.50;37.50;;;;;;4706377;29;118895;-85
2023/04/05 09:53:15;;;;;;;12.68;6.93;;;4.40;37.80;;;;;;4706409;29;114973;-84
2023/04/05 09:55:47;;;;;;;14.48;7.50;;;4.50;37.90;;;;;;4711386;29;115125;-83
2023/04/05 09:58:21;;;;;;;16.83;9.05;;;4.40;37.80;;;;;;4694686;29;114741;-83
2023/04/05 10:00:52;;;;;;;16.88;10.43;;;4.20;38.00;;;;;;4670551;29;115448;-84
2023/04/05 10:03:33;;;;;;;20.73;10.10;;;4.10;38.40;;;;;;4667871;29;114711;-84
2023/04/05 10:06:00;;;;;;;18.15;9.60;;;4.00;38.80;;;;;;4665303;30;114581;-83
2023/04/05 10:08:28;;;;;;;19.45;9.95;;;4.00;38.80;;;;;;4705889;29;114641;-83
2023/04/05 10:10:56;;;;;;;15.93;7.28;;;4.10;38.60;;;;;;4706214;29;115891;-83
2023/04/05 10:13:27;;;;;;;17.80;8.15;;;4.20;38.50;;;;;;4685944;29;114774;-83
2023/04/05 10:15:54;;;;;;;12.63;6.70;;;4.40;38.60;;;;;;4679062;29;115466;-84
2023/04/05 10:18:25;;;;;;;13.30;7.65;;;4.70;38.00;;;;;;4707180;29;114632;-83
2023/04/05 10:20:52;;;;;;;12.75;5.85;;;4.80;37.80;;;;;;4693073;29;115260;-83
2023/04/05 10:23:32;;;;;;;11.50;5.28;;;4.80;36.90;;;;;;4696443;29;114952;-82
2023/04/05 10:26:07;;;;;;;9.85;4.95;;;4.80;36.90;;;;;;4709155;29;114548;-83
2023/04/05 10:28:42;;;;;;;11.55;5.80;;;4.90;37.40;;;;;;4693644;29;114595;-83
2023/04/05 10:31:27;;;;;;;10.30;5.65;;;5.00;36.90;;;;;;4682286;29;115533;-83
2023/04/05 10:34:06;;;;;;;10.90;5.88;;;4.90;36.50;;;;;;4718526;29;115112;-83
2023/04/05 10:37:00;;;;;;;11.00;5.68;;;4.80;36.80;;;;;;4708570;29;114748;-84
2023/04/05 10:39:32;;;;;;;7.07;4.82;;;4.80;37.10;;;;;;4698903;29;114514;-83
2023/04/05 10:42:25;;;;;;;8.25;5.47;;;4.80;36.60;;;;;;4686520;29;115140;-84
2023/04/05 10:45:01;;;;;;;12.52;6.30;;;4.70;36.40;;;;;;4690175;29;114791;-84
2023/04/05 10:47:32;;;;;;;13.68;7.95;;;4.60;36.50;;;;;;4713794;29;115156;-83
2023/04/05 10:49:59;;;;;;;14.20;6.50;;;4.60;36.40;;;;;;4669725;29;115075;-84
2023/04/05 10:52:27;;;;;;;11.65;7.05;;;4.50;36.20;;;;;;4684592;29;116053;-85
2023/04/05 10:54:56;;;;;;;14.00;7.57;;;4.50;36.60;;;;;;4681358;29;118930;-84
2023/04/05 10:57:24;;;;;;;14.85;7.82;;;4.40;36.60;;;;;;4685831;29;115286;-82
2023/04/05 10:59:52;;;;;;;13.82;7.63;;;4.30;36.60;;;;;;4714568;29;114636;-83
2023/04/05 11:02:20;;;;;;;15.55;7.68;;;4.20;36.70;;;;;;4705068;29;118741;-82
2023/04/05 11:04:58;;;;;;;13.88;8.38;;;4.10;37.00;;;;;;4686611;29;115405;-83
2023/04/05 11:07:25;;;;;;;14.30;7.53;;;4.10;37.30;;;;;;4678666;29;114770;-83
2023/04/05 11:10:03;;;;;;;16.65;8.30;;;4.20;37.10;;;;;;4678046;29;114766;-83
2023/04/05 11:12:45;;;;;;;16.17;7.40;;;4.30;36.80;;;;;;4701815;29;115439;-85
2023/04/05 11:15:32;;;;;;;13.80;6.97;;;4.50;36.70;;;;;;4721783;29;114725;-83
2023/04/05 11:18:24;;;;;;;13.02;6.32;;;4.70;36.10;;;;;;4719146;29;114781;-84
2023/04/05 11:21:04;;;;;;;17.45;8.02;;;4.80;36.00;;;;;;4713677;29;114540;-84
2023/04/05 11:24:01;;;;;;;14.90;7.75;;;4.80;36.60;;;;;;4686965;29;115190;-83
2023/04/05 11:26:54;;;;;;;12.90;7.10;;;4.90;36.70;;;;;;4722012;29;115899;-83
2023/04/05 11:29:46;;;;;;;14.20;6.55;;;5.00;36.40;;;;;;4695658;29;114793;-81
2023/04/05 11:32:13;;;;;;;15.50;6.82;;;4.90;36.40;;;;;;4708429;29;114912;-84
2023/04/05 11:34:44;;;;;;;11.85;6.40;;;4.90;36.40;;;;;;4715091;29;115334;-82
2023/04/05 11:37:12;;;;;;;10.45;6.47;;;4.90;36.20;;;;;;4684721;29;114747;-83
2023/04/05 11:39:40;;;;;;;10.48;6.13;;;4.80;36.10;;;;;;4679808;29;115104;-83
2023/04/05 11:42:15;;;;;;;9.32;5.40;;;4.80;36.30;;;;;;4693031;29;114504;-82
2023/04/05 11:44:47;;;;;;;11.43;5.93;;;4.90;36.40;;;;;;4722139;29;115280;-83
2023/04/05 11:47:21;;;;;;;8.85;5.72;;;5.10;36.70;;;;;;4699037;29;116128;-83
2023/04/05 11:49:50;;;;;;;10.18;5.97;;;5.20;35.80;;;;;;4696669;29;115497;-83
2023/04/05 11:52:19;;;;;;;11.80;6.10;;;5.20;35.80;;;;;;4693865;29;115235;-83
2023/04/05 11:54:47;;;;;;;11.27;5.93;;;5.20;35.60;;;;;;4705689;29;114540;-83
2023/04/05 11:57:19;;;;;;;11.48;5.85;;;5.20;35.80;;;;;;4720814;29;114660;-83
2023/04/05 11:59:50;;;;;;;13.13;6.07;;;5.20;35.60;;;;;;4701750;29;114616;-83
2023/04/05 12:02:18;;;;;;;11.48;5.93;;;5.30;36.00;;;;;;4707330;29;114966;-84
2023/04/05 12:04:56;;;;;;;9.40;5.30;;;5.40;35.70;;;;;;4722539;29;116174;-83
2023/04/05 12:07:27;;;;;;;9.45;5.15;;;5.30;34.90;;;;;;4677147;29;114817;-83
2023/04/05 12:10:04;;;;;;;11.70;5.30;;;5.10;34.70;;;;;;4718024;29;114847;-82
2023/04/05 12:12:40;;;;;;;9.15;4.95;;;4.90;35.30;;;;;;4690565;29;114880;-83
2023/04/05 12:15:10;;;;;;;12.43;4.90;;;4.80;35.30;;;;;;4675707;29;115548;-83
2023/04/05 12:17:49;;;;;;;9.50;5.10;;;4.70;35.60;;;;;;4676232;29;118059;-83
2023/04/05 12:20:25;;;;;;;8.55;4.88;;;4.70;35.70;;;;;;4681344;29;114689;-85
2023/04/05 12:22:55;;;;;;;6.88;4.32;;;4.80;35.60;;;;;;4706082;29;114565;-84
2023/04/05 12:25:22;;;;;;;9.35;4.70;;;5.10;35.90;;;;;;4719363;29;115509;-84
2023/04/05 12:27:49;;;;;;;7.40;4.60;;;5.20;35.70;;;;;;4690615;29;114855;-84
2023/04/05 12:30:22;;;;;;;8.50;4.72;;;5.50;35.10;;;;;;4706150;29;114520;-84
2023/04/05 12:32:52;;;;;;;10.82;4.63;;;5.50;34.50;;;;;;4691238;29;115065;-86
2023/04/05 12:35:23;;;;;;;8.60;4.22;;;5.30;34.60;;;;;;4691024;29;114465;-83
2023/04/05 12:37:50;;;;;;;7.53;4.38;;;5.20;34.40;;;;;;4705456;29;115907;-82
2023/04/05 12:40:22;;;;;;;12.10;4.97;;;5.10;34.50;;;;;;4705874;29;114616;-83
2023/04/05 12:42:50;;;;;;;11.20;5.05;;;4.90;35.00;;;;;;4691273;29;114936;-85
2023/04/05 12:45:17;;;;;;;9.32;5.28;;;4.90;35.10;;;;;;4704285;29;115247;-82
2023/04/05 12:47:58;;;;;;;11.30;5.50;;;4.80;35.70;;;;;;4689734;29;114928;-82
2023/04/05 12:50:30;;;;;;;9.25;4.70;;;5.00;35.60;;;;;;4690965;29;114525;-82
2023/04/05 12:53:06;;;;;;;11.60;4.90;;;5.20;35.40;;;;;;4701313;29;114602;-83
2023/04/05 12:55:44;;;;;;;7.80;4.30;;;5.20;34.90;;;;;;4703359;29;115577;-83